Time;durP1;ratioP1;P1;durP2;ratioP2;P2;SDS_P1;SDS_P2;PMS_P1;PMS_P2;Temp;Humidity;BMP_temperature;BMP_pressure;BME280_temperature;BME280_humidity;BME280_pressure;Samples;Min_cycle;Max_cycle;Signal;HPM_P1;HPM_P2
2023/11/09 00:00:13;;;;;;;17.30;12.30;;;;;;;7.42;90.72;100076.80;1770592;81;28263;-68
2023/11/09 00:02:41;;;;;;;22.30;12.33;;;;;;;7.40;90.75;100075.47;1748868;81;25641;-67
2023/11/09 00:05:13;;;;;;;20.17;12.60;;;;;;;7.39;90.94;100079.23;1770440;81;25435;-68
2023/11/09 00:07:43;;;;;;;20.50;12.90;;;;;;;7.37;90.94;100076.87;1770625;81;26186;-68
2023/11/09 00:10:14;;;;;;;17.50;11.95;;;;;;;7.38;91.07;100083.05;1770552;81;25579;-68
2023/11/09 00:12:47;;;;;;;21.40;12.58;;;;;;;7.34;91.12;100077.45;1770559;80;27346;-69
2023/11/09 00:15:20;;;;;;;17.30;11.90;;;;;;;7.33;91.09;100079.88;1770309;80;25628;-67
2023/11/09 00:17:47;;;;;;;23.12;14.35;;;;;;;7.33;91.25;100080.43;1770459;80;25615;-68
2023/11/09 00:20:22;;;;;;;19.48;12.35;;;;;;;7.30;91.29;100088.52;1748036;81;26340;-74
2023/11/09 00:22:51;;;;;;;72.95;50.83;;;;;;;7.27;91.52;100087.75;1770636;80;25396;-72
2023/11/09 00:25:18;;;;;;;27.37;15.25;;;;;;;7.29;92.10;100087.73;1770553;81;27319;-67
2023/11/09 00:27:45;;;;;;;19.75;12.35;;;;;;;7.35;92.22;100089.80;1770395;81;25501;-68
2023/11/09 00:30:17;;;;;;;18.57;12.45;;;;;;;7.36;91.94;100094.65;1770403;80;25618;-67
2023/11/09 00:32:47;;;;;;;21.97;12.28;;;;;;;7.36;91.72;100090.06;1770455;80;25619;-67
2023/11/09 00:35:19;;;;;;;;;;;;;;;7.36;91.75;100088.72;1773144;81;25550;-66
2023/11/09 00:37:50;;;;;;;19.07;12.33;;;;;;;7.37;91.79;100086.28;1747152;81;27920;-67
2023/11/09 00:40:19;;;;;;;19.45;11.85;;;;;;;7.36;91.73;100089.27;1770475;81;25639;-67
2023/11/09 00:42:50;;;;;;;19.15;12.35;;;;;;;7.36;91.72;100083.89;1770478;80;25592;-67
2023/11/09 00:45:21;;;;;;;16.85;12.58;;;;;;;7.35;91.79;100089.80;1770362;80;25668;-67
2023/11/09 00:47:52;;;;;;;18.52;12.78;;;;;;;7.35;91.83;100087.66;1770600;81;25438;-67
2023/11/09 00:50:21;;;;;;;18.02;11.95;;;;;;;7.34;91.58;100084.70;1770551;80;28196;-67
2023/11/09 00:52:48;;;;;;;17.15;12.03;;;;;;;7.33;91.19;100083.12;1770570;81;25525;-68
2023/11/09 00:55:14;;;;;;;19.02;11.90;;;;;;;7.29;91.25;100089.63;1775854;80;25657;-68
2023/11/09 00:57:44;;;;;;;20.85;12.33;;;;;;;7.25;90.84;100088.08;1787532;80;27893;-66
2023/11/09 01:03:07;;;;;;;15.98;11.65;;;;;;;7.18;90.60;100093.55;1757556;81;27510;-67
2023/11/09 01:05:33;;;;;;;18.30;12.07;;;;;;;7.11;90.85;100091.22;1757476;81;25664;-67
2023/11/09 01:08:05;;;;;;;17.92;11.75;;;;;;;7.06;90.67;100085.36;1757696;81;25600;-67
2023/11/09 01:10:35;;;;;;;18.55;11.95;;;;;;;7.01;90.86;100084.08;1757726;81;26452;-66
2023/11/09 01:13:02;;;;;;;20.85;11.85;;;;;;;6.97;90.65;100084.97;1757750;81;25635;-67
2023/11/09 01:15:28;;;;;;;15.83;11.10;;;;;;;6.92;90.45;100080.45;1730165;81;28093;-67
2023/11/09 01:18:07;;;;;;;18.48;12.15;;;;;;;6.88;90.74;100083.48;1730068;81;26103;-67
2023/11/09 01:20:38;;;;;;;18.35;11.20;;;;;;;6.84;90.81;100089.16;1757874;81;25459;-67
2023/11/09 01:23:09;;;;;;;20.85;11.73;;;;;;;6.79;90.86;100085.98;1757695;81;25714;-65
2023/11/09 01:25:36;;;;;;;16.10;11.55;;;;;;;6.76;90.93;100088.45;1757772;81;25484;-65
2023/11/09 01:28:07;;;;;;;17.05;11.18;;;;;;;6.70;90.98;100088.52;1732540;81;27336;-66
2023/11/09 01:30:38;;;;;;;19.32;11.53;;;;;;;6.65;90.79;100095.30;1757619;81;25622;-65
2023/11/09 01:33:07;;;;;;;22.62;13.03;;;;;;;6.59;91.12;100087.58;1757689;81;25658;-65
2023/11/09 01:35:36;;;;;;;;;;;;;;;6.51;91.03;100093.85;1760263;81;25694;-65
2023/11/09 01:38:03;;;;;;;20.88;12.03;;;;;;;6.45;90.97;100089.64;1758010;81;25733;-66
2023/11/09 01:40:34;;;;;;;14.83;11.65;;;;;;;6.39;91.26;100096.14;1785078;79;27929;-65
2023/11/09 01:43:14;;;;;;;16.40;11.40;;;;;;;6.34;91.56;100091.62;1801697;79;25966;-65
2023/11/09 01:45:51;;;;;;;19.00;11.40;;;;;;;6.30;91.70;100097.31;1801803;79;25698;-66
2023/11/09 11:39:36;;;;;;;8.68;5.90;;;;;;;18.22;47.15;99966.84;1743670;82;25622;-67
2023/11/09 11:42:25;;;;;;;10.08;6.47;;;;;;;18.02;44.59;99969.46;1744489;82;25474;-66
2023/11/09 11:44:59;;;;;;;9.85;5.83;;;;;;;17.46;44.54;99949.75;1684814;83;25429;-66
2023/11/09 11:47:32;;;;;;;12.78;6.42;;;;;;;17.12;45.93;99943.27;1744483;82;27326;-66
2023/11/09 11:50:09;;;;;;;10.55;6.22;;;;;;;17.48;47.43;99945.28;1713168;83;25418;-68
2023/11/09 11:52:33;;;;;;;10.20;6.65;;;;;;;17.58;47.03;99944.68;1706253;84;25709;-67
2023/11/09 11:55:04;;;;;;;8.98;5.53;;;;;;;17.51;45.87;99947.30;1708879;84;25770;-67
2023/11/09 11:58:05;;;;;;;12.82;5.65;;;;;;;17.34;46.24;99943.88;1709040;84;25399;-83
2023/11/09 12:00:42;;;;;;;27.98;19.00;;;;;;;17.16;46.79;99938.09;1709291;83;28015;-79
2023/11/09 12:03:16;;;;;;;10.58;6.17;;;;;;;17.31;46.71;99936.39;1750710;80;25754;-78
2023/11/09 12:05:45;;;;;;;11.00;6.95;;;;;;;17.26;46.54;99933.18;1745850;82;25653;-79
2023/11/09 12:08:16;;;;;;;9.50;5.50;;;;;;;17.22;46.18;99932.34;1746334;82;25616;-78
2023/11/09 12:10:48;;;;;;;9.90;5.60;;;;;;;16.91;46.49;99925.91;1745893;82;25586;-60
2023/11/09 12:13:17;;;;;;;9.75;5.58;;;;;;;16.74;46.73;99932.56;1749817;82;27317;-68
2023/11/09 12:15:45;;;;;;;;;;;;;;;16.49;47.25;99921.90;1752336;81;25608;-69
2023/11/09 12:18:12;;;;;;;9.68;4.97;;;;;;;16.38;47.18;99931.23;1749793;82;25482;-69
2023/11/09 12:20:38;;;;;;;7.33;4.97;;;;;;;16.29;48.03;99914.84;1749720;81;25950;-69
2023/11/09 12:23:10;;;;;;;9.75;5.42;;;;;;;16.37;48.54;99917.94;1749829;82;25555;-67
2023/11/09 12:25:52;;;;;;;10.93;4.60;;;;;;;16.40;47.66;99912.56;1749780;81;28014;-65
2023/11/09 12:28:22;;;;;;;10.55;5.03;;;;;;;16.23;47.94;99912.39;1749742;81;25468;-66
2023/11/09 12:30:49;;;;;;;9.95;5.37;;;;;;;16.13;47.82;99910.80;1749810;82;25555;-65
2023/11/09 12:33:17;;;;;;;6.05;3.95;;;;;;;15.88;48.03;99908.27;1750077;82;26689;-68
2023/11/09 12:36:05;;;;;;;6.85;3.90;;;;;;;15.60;47.43;99907.00;1749751;82;25431;-66
2023/11/09 12:38:40;;;;;;;6.70;3.95;;;;;;;15.31;48.00;99904.34;1744175;82;28100;-66
2023/11/09 12:41:12;;;;;;;8.30;4.15;;;;;;;15.07;48.47;99906.64;1739660;82;25533;-66
2023/11/09 12:43:42;;;;;;;6.08;3.65;;;;;;;14.84;48.86;99902.31;1739745;82;25458;-64
2023/11/09 12:46:11;;;;;;;8.25;3.92;;;;;;;14.74;49.07;99898.17;1718578;82;25638;-65
2023/11/09 12:48:46;;;;;;;6.75;3.47;;;;;;;14.52;48.74;99885.86;1739711;82;25647;-62
2023/11/09 12:51:22;;;;;;;7.85;3.00;;;;;;;14.42;49.41;99889.61;1739722;82;27335;-68
2023/11/09 12:53:55;;;;;;;7.05;3.70;;;;;;;14.34;50.05;99890.77;1739425;82;25811;-68
2023/11/09 12:56:25;;;;;;;7.90;3.75;;;;;;;14.17;50.18;99887.75;1739790;82;25656;-65
2023/11/09 12:58:54;;;;;;;8.08;4.00;;;;;;;14.07;50.70;99889.58;1739739;82;25943;-75
2023/11/09 13:01:24;;;;;;;11.33;6.65;;;;;;;14.06;50.74;99886.63;1740228;82;25474;-78
2023/11/09 13:03:53;;;;;;;7.20;3.58;;;;;;;13.99;50.98;99880.39;1740231;82;27321;-77
2023/11/09 13:06:25;;;;;;;5.03;2.85;;;;;;;14.00;51.37;99881.99;1739358;81;25727;-76
2023/11/09 13:09:34;;;;;;;8.30;5.00;;;;;;;14.02;50.96;99881.66;1740070;82;25441;-76
2023/11/09 13:11:42;;;;;;;13.90;10.23;;;;;;;13.88;50.99;99879.87;1736637;82;25617;-75
2023/11/09 13:14:16;;;;;;;9.38;3.95;;;;;;;13.73;51.20;99878.05;1739728;82;25514;-70
2023/11/09 13:16:40;;;;;;;6.53;3.02;;;;;;;13.66;51.99;99866.95;1738114;82;28436;-69
2023/11/09 13:19:27;;;;;;;6.45;3.40;;;;;;;13.69;51.93;99877.16;1739686;82;25556;-70
2023/11/09 13:21:54;;;;;;;7.45;3.58;;;;;;;13.66;52.20;99875.11;1739684;82;25786;-71
2023/11/09 13:24:26;;;;;;;6.40;3.55;;;;;;;13.65;52.51;99877.59;1739631;82;25610;-67
2023/11/09 13:26:54;;;;;;;7.78;3.70;;;;;;;13.72;52.02;99868.87;1738314;82;25591;-68
2023/11/09 13:29:23;;;;;;;5.95;3.25;;;;;;;13.62;51.61;99869.56;1739681;82;27689;-68
2023/11/09 13:31:56;;;;;;;7.58;3.10;;;;;;;13.44;52.12;99873.63;1739586;82;25885;-68
2023/11/09 13:34:42;;;;;;;6.22;3.02;;;;;;;13.34;52.43;99865.92;1739437;82;25398;-67
2023/11/09 13:36:57;;;;;;;5.72;3.37;;;;;;;13.21;52.21;99864.52;1736362;82;25551;-68
2023/11/09 13:42:00;;;;;;;;;;;;;;;12.84;53.03;99848.70;1750725;82;27962;-67
2023/11/09 13:44:26;;;;;;;10.55;2.98;;;;;;;12.65;53.39;99843.21;1747765;81;26257;-68
2023/11/09 13:46:59;;;;;;;4.50;3.05;;;;;;;12.52;53.76;99852.42;1748239;81;25394;-66
2023/11/09 13:49:24;;;;;;;7.03;3.20;;;;;;;12.37;54.16;99840.83;1747499;81;26500;-68
2023/11/09 13:52:06;;;;;;;7.22;3.58;;;;;;;12.23;54.24;99835.67;1748130;81;25611;-67
2023/11/09 13:59:52;;;;;;;7.08;3.62;;;;;;;11.93;55.51;99827.58;1748230;81;25411;-71
2023/11/09 14:02:16;;;;;;;6.05;3.72;;;;;;;11.84;55.81;99827.61;1718507;83;25687;-69
2023/11/09 14:04:56;;;;;;;6.15;3.77;;;;;;;11.73;55.99;99831.27;1718403;83;25463;-69
2023/11/09 14:07:31;;;;;;;8.50;3.85;;;;;;;11.63;56.37;99835.71;1718625;83;27554;-68
2023/11/09 14:09:53;;;;;;;9.10;3.37;;;;;;;11.46;56.68;99835.23;1717812;83;25629;-68
2023/11/09 14:15:08;;;;;;;9.00;3.30;;;;;;;11.30;57.43;99835.53;1682727;85;25708;-68
2023/11/09 14:17:34;;;;;;;6.45;3.30;;;;;;;11.19;57.71;99833.18;1681602;85;25518;-66
2023/11/09 14:19:57;;;;;;;6.12;3.37;;;;;;;11.10;57.94;99835.14;1682072;85;27338;-67
2023/11/09 14:22:28;;;;;;;6.40;3.33;;;;;;;11.02;58.31;99846.20;1682366;85;25482;-66
2023/11/09 14:24:57;;;;;;;7.80;3.02;;;;;;;10.92;58.48;99844.41;1682342;85;25459;-66
2023/11/09 14:27:26;;;;;;;7.42;3.62;;;;;;;10.82;58.81;99839.56;1682433;85;25742;-66
2023/11/09 14:29:57;;;;;;;6.17;2.58;;;;;;;10.75;59.16;99835.77;1682398;85;25646;-65
2023/11/09 14:55:21;;;;;;;4.60;3.02;;;;;;;9.97;61.61;99824.38;1688966;80;27217;-70
2023/11/09 14:57:49;;;;;;;13.78;8.83;;;;;;;9.86;62.15;99827.39;1698695;84;25612;-69
2023/11/09 15:00:20;;;;;;;6.72;3.42;;;;;;;9.80;62.30;99819.75;1698719;84;27395;-69
2023/11/09 15:02:45;;;;;;;7.00;4.35;;;;;;;9.71;62.94;99808.36;1750762;81;25802;-70
2023/11/09 15:05:17;;;;;;;10.20;6.17;;;;;;;9.63;62.71;99819.15;1810041;79;25380;-71
2023/11/09 15:07:47;;;;;;;5.20;3.00;;;;;;;9.55;62.95;99809.91;1803965;79;25610;-72
2023/11/09 15:10:16;;;;;;;7.55;3.22;;;;;;;9.50;63.46;99815.45;1804350;79;25552;-72
2023/11/09 15:12:43;;;;;;;7.33;3.37;;;;;;;9.45;63.72;99816.41;1804001;79;27326;-73
2023/11/09 15:15:12;;;;;;;8.43;3.58;;;;;;;9.39;63.99;99809.55;1804026;79;25573;-70
2023/11/09 15:17:43;;;;;;;7.47;3.60;;;;;;;9.33;64.39;99808.09;1786255;79;25611;-72
2023/11/09 15:20:18;;;;;;;7.45;3.50;;;;;;;9.27;64.36;99807.44;1804020;79;25691;-72
2023/11/09 15:22:42;;;;;;;7.30;3.83;;;;;;;9.21;64.59;99803.84;1803366;79;25573;-71
2023/11/09 15:25:10;;;;;;;7.92;4.05;;;;;;;9.14;65.33;99803.75;1804003;79;27329;-70
2023/11/09 15:27:42;;;;;;;9.18;3.40;;;;;;;9.10;65.34;99792.53;1803981;78;25517;-71
2023/11/09 15:30:12;;;;;;;8.90;3.85;;;;;;;9.06;65.47;99806.38;1804087;78;25588;-71
2023/11/09 15:32:41;;;;;;;8.35;4.20;;;;;;;9.02;65.48;99800.03;1804001;79;26289;-70
2023/11/09 15:35:11;;;;;;;6.55;3.62;;;;;;;8.98;65.86;99802.55;1804140;79;25445;-67
2023/11/09 15:37:42;;;;;;;5.67;3.70;;;;;;;8.91;65.85;99802.99;1804084;77;27333;-71
2023/11/09 15:40:14;;;;;;;7.75;4.08;;;;;;;8.87;66.20;99802.56;1803937;79;25562;-70
2023/11/09 15:42:44;;;;;;;9.50;4.10;;;;;;;8.81;66.76;99797.86;1803757;79;25644;-70
2023/11/09 15:45:12;;;;;;;17.30;4.58;;;;;;;8.76;67.08;99793.39;1804016;79;25657;-71
2023/11/09 15:47:43;;;;;;;9.40;4.60;;;;;;;8.71;67.26;99795.42;1803748;78;25408;-71
2023/11/09 15:50:10;;;;;;;7.40;4.67;;;;;;;8.65;67.28;99788.56;1802808;79;27318;-69
2023/11/09 15:52:38;;;;;;;12.43;4.67;;;;;;;8.61;67.37;99793.77;1804021;78;30059;-70
2023/11/09 15:55:06;;;;;;;7.35;3.60;;;;;;;8.58;67.64;99788.46;1805712;78;25554;-70
2023/11/09 15:57:39;;;;;;;9.70;4.65;;;;;;;8.55;68.15;99783.68;1810137;79;25630;-70
2023/11/09 16:00:21;;;;;;;7.67;4.00;;;;;;;8.53;68.16;99792.63;1809999;79;25437;-70
2023/11/09 16:02:47;;;;;;;11.73;4.70;;;;;;;8.49;68.54;99789.50;1808355;79;27334;-70
2023/11/09 16:05:12;;;;;;;7.65;4.85;;;;;;;8.44;68.29;99790.41;1809559;79;25571;-69
2023/11/09 16:07:50;;;;;;;9.73;5.25;;;;;;;8.42;68.73;99797.98;1809926;79;25189;-72
2023/11/09 16:10:25;;;;;;;9.50;4.97;;;;;;;8.40;68.74;99796.94;1809858;78;25588;-69
2023/11/09 16:12:52;;;;;;;10.90;5.17;;;;;;;8.38;68.89;99802.41;1810309;78;25605;-70
2023/11/09 16:15:20;;;;;;;8.38;4.62;;;;;;;8.36;69.33;99800.02;1810118;79;28035;-70
2023/11/09 16:17:50;;;;;;;7.87;4.67;;;;;;;8.33;69.58;99791.19;1810539;79;26304;-70
2023/11/09 16:20:21;;;;;;;12.43;5.97;;;;;;;8.30;69.31;99793.70;1810318;79;25636;-71
2023/11/09 16:22:54;;;;;;;10.55;5.20;;;;;;;8.27;69.22;99793.75;1810636;78;25782;-71
2023/11/09 16:25:22;;;;;;;8.10;4.35;;;;;;;8.26;69.53;99807.52;1784277;80;25391;-70
2023/11/09 16:27:55;;;;;;;8.90;4.72;;;;;;;8.26;69.53;99791.35;1805549;79;25796;-72
2023/11/09 16:30:30;;;;;;;8.40;5.42;;;;;;;8.23;69.49;99791.42;1809756;79;25350;-71
2023/11/09 16:32:59;;;;;;;8.58;4.75;;;;;;;8.22;69.83;99797.38;1809178;79;25297;-72
2023/11/09 16:35:26;;;;;;;10.70;4.95;;;;;;;8.20;69.98;99797.42;1809987;79;25626;-71
2023/11/09 16:37:53;;;;;;;12.00;5.45;;;;;;;8.20;70.03;99790.13;1809645;79;25375;-71
2023/11/09 16:40:20;;;;;;;10.28;5.62;;;;;;;8.22;69.93;99790.64;1809699;79;27331;-70
2023/11/09 16:42:48;;;;;;;9.40;5.22;;;;;;;8.21;69.86;99797.67;1809491;79;25428;-68
2023/11/09 16:45:16;;;;;;;8.95;5.00;;;;;;;8.19;69.99;99795.84;1809595;79;25688;-71
2023/11/09 16:47:49;;;;;;;9.23;4.87;;;;;;;8.18;69.76;99791.55;1809512;79;25615;-75
2023/11/09 16:50:15;;;;;;;14.23;6.15;;;;;;;8.20;69.99;99789.34;1809728;79;25559;-76
2023/11/09 16:52:44;;;;;;;29.32;19.57;;;;;;;8.20;69.78;99794.16;1810864;79;27477;-75
2023/11/09 16:55:13;;;;;;;7.17;4.60;;;;;;;8.18;69.91;99786.95;1802606;79;25730;-76
2023/11/09 16:57:44;;;;;;;15.23;9.10;;;;;;;8.19;69.76;99787.77;1772191;81;25397;-76
2023/11/09 17:00:17;;;;;;;27.55;17.98;;;;;;;8.17;69.80;99789.41;1771682;80;25584;-64
2023/11/09 17:02:42;;;;;;;10.38;6.10;;;;;;;8.16;69.98;99793.19;1771294;80;25569;-66
2023/11/09 17:05:11;;;;;;;9.78;5.60;;;;;;;8.16;70.04;99787.80;1771362;81;28014;-65
2023/11/09 17:07:40;;;;;;;8.88;5.37;;;;;;;8.15;69.87;99799.67;1771416;81;25412;-65
2023/11/09 17:10:09;;;;;;;10.28;5.62;;;;;;;8.12;69.69;99786.84;1770766;81;25565;-64
2023/11/09 17:12:36;;;;;;;14.18;5.83;;;;;;;8.07;69.73;99776.17;1771329;81;25610;-68
2023/11/09 17:15:07;;;;;;;12.45;6.12;;;;;;;8.04;69.99;99776.22;1771383;81;25481;-64
2023/11/09 17:17:34;;;;;;;14.10;5.87;;;;;;;8.02;69.83;99773.59;1771420;80;28348;-66
2023/11/09 17:20:04;;;;;;;12.00;5.85;;;;;;;8.01;70.13;99773.34;1771275;81;25784;-67
2023/11/09 17:22:30;;;;;;;11.55;5.83;;;;;;;8.02;70.16;99774.39;1771445;81;25558;-68
2023/11/09 17:24:58;;;;;;;13.93;5.83;;;;;;;7.99;70.13;99774.20;1771321;81;25967;-65
2023/11/09 17:27:25;;;;;;;15.45;6.45;;;;;;;7.95;70.17;99767.28;1771513;80;25481;-67
2023/11/09 17:29:51;;;;;;;12.43;6.40;;;;;;;7.92;70.23;99773.27;1771333;81;27889;-63
2023/11/09 17:32:18;;;;;;;16.70;7.60;;;;;;;7.86;70.60;99777.95;1771293;81;25638;-66
2023/11/09 17:34:47;;;;;;;14.90;6.42;;;;;;;7.86;70.61;99768.53;1771387;81;25528;-65
2023/11/09 17:37:14;;;;;;;11.88;6.15;;;;;;;7.85;70.63;99770.99;1771341;80;25607;-65
2023/11/09 17:39:41;;;;;;;13.83;6.33;;;;;;;7.82;70.99;99770.25;1771385;81;25439;-65
2023/11/09 17:42:10;;;;;;;14.35;7.67;;;;;;;7.81;70.84;99767.86;1771379;81;28102;-65
2023/11/09 17:44:37;;;;;;;15.08;6.72;;;;;;;7.79;70.67;99763.33;1771428;80;25688;-67
2023/11/09 17:47:03;;;;;;;14.47;7.53;;;;;;;7.77;70.71;99753.42;1771325;81;25443;-69
2023/11/09 17:49:30;;;;;;;11.63;6.53;;;;;;;7.76;70.93;99760.67;1771561;81;25679;-68
2023/11/09 17:51:57;;;;;;;12.73;6.50;;;;;;;7.77;71.67;99758.24;1771611;81;25191;-70
2023/11/09 17:54:24;;;;;;;12.53;6.60;;;;;;;7.76;71.07;99751.81;1771562;81;28091;-69
2023/11/09 17:56:50;;;;;;;12.80;7.17;;;;;;;7.75;71.48;99763.70;1764962;79;25393;-68
2023/11/09 17:59:20;;;;;;;14.07;6.75;;;;;;;7.74;71.29;99756.70;1763212;81;25583;-67
2023/11/09 18:01:49;;;;;;;10.53;6.70;;;;;;;7.73;71.60;99763.18;1763105;81;25649;-66
2023/11/09 18:04:19;;;;;;;15.00;6.87;;;;;;;7.71;71.37;99751.36;1763312;81;25479;-67
2023/11/09 18:06:46;;;;;;;11.65;6.58;;;;;;;7.69;71.29;99747.40;1763284;80;27343;-66
2023/11/09 18:09:16;;;;;;;16.07;7.17;;;;;;;7.66;71.37;99742.05;1763020;81;25640;-65
2023/11/09 18:11:44;;;;;;;12.58;7.28;;;;;;;7.63;71.49;99749.41;1763009;80;25497;-67
2023/11/09 18:14:14;;;;;;;16.27;7.67;;;;;;;7.60;71.82;99744.63;1763336;81;25620;-67
2023/11/09 18:16:43;;;;;;;11.12;6.30;;;;;;;7.58;71.73;99741.45;1763176;81;25596;-69
2023/11/09 18:19:13;;;;;;;14.78;7.75;;;;;;;7.56;72.05;99742.27;1763056;81;28042;-66
2023/11/09 18:21:38;;;;;;;15.15;7.78;;;;;;;7.53;71.97;99734.83;1762737;80;25599;-71
2023/11/09 18:24:08;;;;;;;15.88;7.20;;;;;;;7.51;72.40;99737.00;1763116;81;25444;-69
2023/11/09 18:26:36;;;;;;;17.87;7.92;;;;;;;7.48;72.30;99737.86;1762741;80;26391;-68
2023/11/09 22:09:00;;;;;;;20.35;11.10;;;;;;;6.31;78.27;99619.98;1784405;80;25596;-49
2023/11/09 22:11:29;;;;;;;17.42;10.82;;;;;;;6.30;78.27;99611.13;1779265;80;25749;-53
2023/11/09 22:13:57;;;;;;;18.00;10.60;;;;;;;6.31;78.17;99604.65;1719887;81;25273;-52
2023/11/09 22:16:24;;;;;;;14.73;9.65;;;;;;;6.31;78.13;99615.39;1779076;80;28004;-52
2023/11/09 22:18:53;;;;;;;17.90;10.13;;;;;;;6.33;78.26;99608.39;1784761;80;25462;-53
2023/11/09 22:21:24;;;;;;;16.42;9.88;;;;;;;6.32;78.08;99608.94;1785192;80;25369;-52
2023/11/09 22:23:55;;;;;;;16.20;10.03;;;;;;;6.34;78.06;99614.02;1785050;80;25971;-50
2023/11/09 22:26:22;;;;;;;15.20;8.80;;;;;;;6.33;78.21;99607.86;1784995;80;25395;-51
2023/11/09 22:28:49;;;;;;;16.82;10.00;;;;;;;6.33;77.89;99607.05;1785011;80;27804;-54
2023/11/09 22:31:16;;;;;;;17.20;10.28;;;;;;;6.32;77.94;99602.23;1785017;79;25593;-51
2023/11/09 22:33:42;;;;;;;17.95;10.48;;;;;;;6.32;77.83;99612.19;1784983;79;25399;-50
2023/11/09 22:36:09;;;;;;;19.77;11.03;;;;;;;6.33;77.85;99607.05;1763119;80;25977;-52
2023/11/09 22:38:38;;;;;;;15.72;10.08;;;;;;;6.30;77.67;99607.11;1785111;80;25550;-51
2023/11/09 22:41:10;;;;;;;18.02;10.68;;;;;;;6.30;77.86;99605.77;1785216;79;28671;-51
2023/11/09 22:43:34;;;;;;;14.75;8.95;;;;;;;6.26;77.60;99601.27;1784924;80;29641;-51
2023/11/09 22:46:01;;;;;;;16.65;9.20;;;;;;;6.24;77.86;99594.06;1784989;80;25427;-54
2023/11/09 22:48:28;;;;;;;16.80;10.40;;;;;;;6.25;77.92;99609.06;1784895;79;25607;-53
2023/11/09 22:50:55;;;;;;;20.72;10.53;;;;;;;6.24;77.82;99603.47;1785037;80;25599;-57
2023/11/09 22:53:21;;;;;;;17.10;10.55;;;;;;;6.22;78.03;99606.44;1785027;80;28335;-58
2023/11/09 22:55:48;;;;;;;18.10;11.45;;;;;;;6.21;77.98;99602.16;1784986;80;25557;-59
2023/11/09 22:58:15;;;;;;;17.30;11.70;;;;;;;6.21;77.94;99602.70;1785067;79;25541;-59
2023/11/09 23:00:50;;;;;;;29.80;17.07;;;;;;;6.22;77.91;99601.07;1785007;80;26698;-59
2023/11/09 23:03:11;;;;;;;15.68;9.70;;;;;;;6.21;77.83;99596.78;1784355;80;25600;-55
2023/11/09 23:05:40;;;;;;;16.87;9.48;;;;;;;6.19;77.97;99598.97;1785092;79;27378;-52
2023/11/09 23:08:07;;;;;;;18.37;9.48;;;;;;;6.22;77.79;99601.62;1784871;79;25613;-50
2023/11/09 23:10:37;;;;;;;17.45;9.73;;;;;;;6.21;77.86;99601.36;1785001;80;25522;-52
2023/11/09 23:13:04;;;;;;;20.12;10.28;;;;;;;6.20;77.89;99594.39;1785066;80;25595;-53
2023/11/09 23:15:33;;;;;;;23.92;10.05;;;;;;;6.18;77.94;99590.69;1784086;80;26047;-51
2023/11/09 23:18:00;;;;;;;;;;;;;;;6.18;77.87;99596.05;1786548;80;28368;-54
2023/11/09 23:20:27;;;;;;;13.85;8.90;;;;;;;6.16;77.90;99601.72;1783629;80;26062;-53
2023/11/09 23:22:57;;;;;;;16.85;9.85;;;;;;;6.14;77.82;99601.19;1785003;80;25587;-50
2023/11/09 23:25:26;;;;;;;17.40;9.28;;;;;;;6.12;77.87;99589.96;1785118;80;25790;-51
2023/11/09 23:27:55;;;;;;;17.55;10.28;;;;;;;6.11;77.84;99594.28;1785187;79;25566;-53
2023/11/09 23:30:24;;;;;;;17.85;10.15;;;;;;;6.10;78.11;99596.73;1784756;80;27329;-55
2023/11/09 23:32:52;;;;;;;17.02;9.65;;;;;;;6.09;77.95;99603.19;1784948;80;25429;-53
2023/11/09 23:35:21;;;;;;;17.62;9.63;;;;;;;6.09;78.17;99596.47;1785112;80;25506;-53
2023/11/09 23:37:50;;;;;;;14.90;10.30;;;;;;;6.07;77.94;99594.08;1784918;79;25946;-51
2023/11/09 23:40:19;;;;;;;20.40;10.10;;;;;;;6.05;78.20;99596.27;1784777;79;25633;-55
2023/11/09 23:42:46;;;;;;;17.75;9.30;;;;;;;6.05;78.07;99603.53;1783891;80;27237;-52
2023/11/09 23:45:14;;;;;;;18.85;9.48;;;;;;;6.02;78.30;99595.51;1783972;79;26069;-52
2023/11/09 23:47:43;;;;;;;15.05;8.93;;;;;;;6.01;78.16;99593.12;1784370;80;25677;-50
2023/11/09 23:50:12;;;;;;;20.13;10.20;;;;;;;5.99;78.16;99598.78;1784271;79;26324;-52
2023/11/09 23:52:39;;;;;;;16.80;10.78;;;;;;;5.98;78.34;99595.86;1783383;80;25964;-55
2023/11/09 23:55:08;;;;;;;14.30;9.45;;;;;;;5.97;78.42;99603.66;1784080;80;28105;-54
2023/11/09 23:57:35;;;;;;;20.23;9.58;;;;;;;5.95;78.32;99597.76;1784773;79;25654;-55
